createdAt,value
2023-04-28T00:00:22.847Z,99984.97
2023-04-28T00:01:26.387Z,99980.91
2023-04-28T00:02:31.820Z,99980.52
2023-04-28T00:03:35.937Z,99976.48
2023-04-28T00:04:39.396Z,99977.70
2023-04-28T00:05:42.886Z,99972.33
2023-04-28T00:06:46.369Z,99973.27
2023-04-28T00:07:50.926Z,99975.56
2023-04-28T00:08:55.482Z,99974.52
2023-04-28T00:10:00.786Z,99979.59
2023-04-28T00:11:03.534Z,99976.08
2023-04-28T00:12:09.536Z,99986.03
2023-04-28T00:13:13.790Z,99983.39
2023-04-28T00:14:20.196Z,99977.52
2023-04-28T00:15:24.473Z,99977.80
2023-04-28T00:16:27.750Z,99982.45
2023-04-28T00:17:32.297Z,99984.02
2023-04-28T00:18:35.684Z,99979.39
2023-04-28T00:19:40.929Z,99975.45
2023-04-28T00:20:43.236Z,99985.81
2023-04-28T00:21:48.631Z,99980.74
2023-04-28T00:22:52.969Z,99986.41
2023-04-28T00:23:56.355Z,99986.41
2023-04-28T00:24:59.639Z,99989.44
2023-04-28T00:26:03.052Z,99996.05
2023-04-28T00:27:06.335Z,99996.88
2023-04-28T00:28:09.632Z,99999.91
2023-04-28T00:29:12.666Z,99990.55
2023-04-28T00:30:17.159Z,99993.01
2023-04-28T00:31:22.367Z,99999.17
2023-04-28T00:32:25.524Z,100000.30
2023-04-28T00:33:30.015Z,100006.27
2023-04-28T00:34:33.823Z,100008.91
2023-04-28T00:35:37.510Z,100010.48
2023-04-28T00:36:40.595Z,100013.80
2023-04-28T00:37:43.925Z,100016.46
2023-04-28T00:38:46.207Z,100014.20
2023-04-28T00:39:49.865Z,100010.97
2023-04-28T00:40:52.226Z,100019.58
2023-04-28T00:41:58.653Z,100018.16
2023-04-28T00:43:02.571Z,100011.91
2023-04-28T00:44:05.975Z,100017.78
2023-04-28T00:45:10.316Z,100016.15
2023-04-28T00:46:15.755Z,100022.58
2023-04-28T00:47:25.594Z,100020.13
2023-04-28T00:48:30.117Z,100030.63
2023-04-28T00:49:37.839Z,100026.02
2023-04-28T00:50:43.405Z,100025.24
2023-04-28T00:51:47.753Z,100026.85
2023-04-28T00:52:51.656Z,100028.92
2023-04-28T00:53:55.485Z,100025.33
2023-04-28T00:54:58.271Z,100031.57
2023-04-28T00:56:01.764Z,100033.58
2023-04-28T00:57:05.061Z,100023.09
2023-04-28T00:58:10.132Z,100025.34
2023-04-28T00:59:14.283Z,100028.75
2023-04-28T01:00:17.458Z,100023.82
2023-04-28T01:01:20.785Z,100026.20
2023-04-28T01:02:28.828Z,100026.50
2023-04-28T01:03:36.208Z,100029.59
2023-04-28T01:04:39.734Z,100022.78
2023-04-28T01:05:43.547Z,100027.52
2023-04-28T01:06:47.912Z,100024.20
2023-04-28T01:07:51.495Z,100025.15
2023-04-28T01:08:56.464Z,100029.52
2023-04-28T01:10:00.076Z,100028.08
2023-04-28T01:11:05.444Z,100019.59
2023-04-28T01:12:10.959Z,100013.98
2023-04-28T01:13:21.265Z,100019.19
2023-04-28T01:14:24.749Z,100025.24
2023-04-28T01:15:29.388Z,100021.66
2023-04-28T01:16:33.224Z,100024.80
2023-04-28T01:17:37.783Z,100021.75
2023-04-28T01:18:44.776Z,100023.36
2023-04-28T01:19:48.223Z,100030.09
2023-04-28T01:20:51.313Z,100031.67
2023-04-28T01:21:54.643Z,100031.12
2023-04-28T01:22:59.041Z,100024.13
2023-04-28T01:24:03.706Z,100024.58
2023-04-28T01:25:07.528Z,100027.70
2023-04-28T01:26:10.402Z,100024.88
2023-04-28T01:27:13.912Z,100036.50
2023-04-28T01:28:17.322Z,100031.30
2023-04-28T01:29:20.968Z,100033.45
2023-04-28T01:30:23.167Z,100036.95
2023-04-28T01:31:28.386Z,100039.42
2023-04-28T01:32:32.090Z,100040.45
2023-04-28T01:33:38.803Z,100038.95
2023-04-28T01:34:42.187Z,100039.52
2023-04-28T01:35:46.300Z,100041.62
2023-04-28T01:36:49.751Z,100046.15
2023-04-28T01:37:52.518Z,100046.15
2023-04-28T01:38:58.104Z,100048.70
2023-04-28T01:40:01.634Z,100044.17
2023-04-28T01:41:05.058Z,100040.77
2023-04-28T01:42:08.296Z,100047.00
2023-04-28T01:43:11.486Z,100040.37
2023-04-28T01:44:14.966Z,100037.94
2023-04-28T01:45:18.714Z,100046.61
2023-04-28T01:46:24.237Z,100042.92
2023-04-28T01:47:29.728Z,100042.08
2023-04-28T01:48:34.380Z,100041.22
2023-04-28T01:49:37.743Z,100048.40
2023-04-28T01:50:44.298Z,100038.66
2023-04-28T01:51:47.915Z,100042.89
2023-04-28T01:52:50.881Z,100035.98
2023-04-28T01:53:54.262Z,100038.62
2023-04-28T01:54:57.597Z,100035.75
2023-04-28T01:56:00.782Z,100042.16
2023-04-28T01:57:05.623Z,100033.95
2023-04-28T01:58:12.923Z,100041.70
2023-04-28T01:59:22.685Z,100032.83
2023-04-28T02:00:28.903Z,100028.08
2023-04-28T02:01:33.254Z,100033.34
2023-04-28T02:02:39.526Z,100039.34
2023-04-28T02:03:44.067Z,100038.21
2023-04-28T02:04:47.395Z,100044.63
2023-04-28T02:05:55.595Z,100040.00
2023-04-28T02:06:59.726Z,100038.03
2023-04-28T02:08:03.198Z,100042.25
2023-04-28T02:09:06.216Z,100039.34
2023-04-28T02:10:12.005Z,100038.03
2023-04-28T02:11:16.478Z,100037.05
2023-04-28T02:12:21.979Z,100042.47
2023-04-28T02:13:27.667Z,100040.67
2023-04-28T02:14:31.770Z,100041.37
2023-04-28T02:15:34.974Z,100043.20
2023-04-28T02:16:39.206Z,100036.50
2023-04-28T02:17:42.780Z,100043.55
2023-04-28T02:18:45.163Z,100041.35
2023-04-28T02:19:48.786Z,100045.79
2023-04-28T02:20:52.174Z,100037.95
2023-04-28T02:21:55.693Z,100043.92
2023-04-28T02:22:58.467Z,100048.89
2023-04-28T02:24:03.123Z,100040.33
2023-04-28T02:25:08.594Z,100046.75
2023-04-28T02:26:13.819Z,100047.81
2023-04-28T02:27:18.296Z,100043.77
2023-04-28T02:28:25.612Z,100052.38
2023-04-28T02:29:28.995Z,100050.16
2023-04-28T02:30:36.063Z,100051.19
2023-04-28T02:31:38.426Z,100046.66
2023-04-28T02:32:41.415Z,100049.52
2023-04-28T02:33:44.837Z,100050.37
2023-04-28T02:34:48.027Z,100053.41
2023-04-28T02:35:53.042Z,100055.53
2023-04-28T02:36:58.429Z,100059.97
2023-04-28T02:38:05.287Z,100054.58
2023-04-28T02:39:08.684Z,100062.69
2023-04-28T02:40:12.609Z,100054.80
2023-04-28T02:41:16.135Z,100055.75
2023-04-28T02:42:19.723Z,100050.45
2023-04-28T02:43:23.214Z,100052.04
2023-04-28T02:44:28.417Z,100059.24
2023-04-28T02:45:36.817Z,100058.00
2023-04-28T02:46:39.092Z,100058.39
2023-04-28T02:47:42.487Z,100064.76
2023-04-28T02:48:47.737Z,100066.03
2023-04-28T02:49:54.062Z,100066.12
2023-04-28T02:50:57.800Z,100062.53
2023-04-28T02:52:01.606Z,100065.17
2023-04-28T02:53:04.910Z,100068.77
2023-04-28T02:54:08.722Z,100064.04
2023-04-28T02:55:12.345Z,100069.91
2023-04-28T02:56:15.108Z,100065.74
2023-04-28T02:57:19.365Z,100063.75
2023-04-28T02:58:22.772Z,100065.16
2023-04-28T02:59:26.353Z,100065.48
2023-04-28T03:00:30.692Z,100061.77
2023-04-28T03:01:36.077Z,100066.64
2023-04-28T03:02:39.523Z,100068.03
2023-04-28T03:03:43.627Z,100069.42
2023-04-28T03:04:47.557Z,100069.16
2023-04-28T03:05:54.096Z,100077.00
2023-04-28T03:06:57.886Z,100079.17
2023-04-28T03:08:02.804Z,100086.78
2023-04-28T03:09:06.361Z,100090.37
2023-04-28T03:10:10.977Z,100090.37
2023-04-28T03:11:15.979Z,100090.95
2023-04-28T03:12:19.610Z,100098.13
2023-04-28T03:13:24.230Z,100095.39
2023-04-28T03:14:29.531Z,100091.41
2023-04-28T03:15:33.562Z,100100.86
2023-04-28T03:16:37.311Z,100096.75
2023-04-28T03:17:44.686Z,100096.92
2023-04-28T03:18:48.242Z,100098.67
2023-04-28T03:19:51.680Z,100096.80
2023-04-28T03:20:54.302Z,100101.23
2023-04-28T03:21:59.477Z,100105.41
2023-04-28T03:23:05.283Z,100103.69
2023-04-28T03:24:08.795Z,100110.77
2023-04-28T03:25:12.528Z,100109.01
2023-04-28T03:26:17.737Z,100110.63
2023-04-28T03:27:23.489Z,100112.89
2023-04-28T03:28:28.453Z,100113.01
2023-04-28T03:29:31.544Z,100112.97
2023-04-28T03:30:35.037Z,100106.53
2023-04-28T03:31:38.308Z,100111.37
2023-04-28T03:32:42.649Z,100106.83
2023-04-28T03:33:48.752Z,100111.36
2023-04-28T03:34:53.522Z,100113.42
2023-04-28T03:35:56.697Z,100115.83
2023-04-28T03:37:00.993Z,100119.47
2023-04-28T03:38:05.955Z,100121.02
2023-04-28T03:39:10.714Z,100124.61
2023-04-28T03:40:16.771Z,100123.08
2023-04-28T03:41:26.861Z,100119.41
2023-04-28T03:42:34.730Z,100125.80
2023-04-28T03:43:39.036Z,100135.46
2023-04-28T03:44:46.200Z,100129.72
2023-04-28T03:45:51.625Z,100128.02
2023-04-28T03:46:54.372Z,100128.56
2023-04-28T03:47:58.567Z,100125.63
2023-04-28T03:49:03.039Z,100129.90
2023-04-28T03:50:08.011Z,100128.74
2023-04-28T03:51:13.640Z,100133.32
2023-04-28T03:52:17.896Z,100130.37
2023-04-28T03:53:21.685Z,100133.32
2023-04-28T03:54:25.159Z,100134.44
2023-04-28T03:55:28.772Z,100131.80
2023-04-28T03:56:34.041Z,100125.83
2023-04-28T03:57:37.556Z,100137.58
2023-04-28T03:58:44.121Z,100131.03
2023-04-28T03:59:49.281Z,100142.20
2023-04-28T04:00:52.984Z,100132.83
2023-04-28T04:01:58.471Z,100129.52
2023-04-28T04:03:02.395Z,100130.86
2023-04-28T04:04:05.960Z,100140.77
2023-04-28T04:05:11.351Z,100139.28
2023-04-28T04:06:16.469Z,100139.56
2023-04-28T04:07:19.898Z,100140.87
2023-04-28T04:08:24.004Z,100137.45
2023-04-28T04:09:27.489Z,100135.56
2023-04-28T04:10:30.618Z,100135.87
2023-04-28T04:11:34.507Z,100144.19
2023-04-28T04:12:38.687Z,100142.48
2023-04-28T04:13:42.147Z,100135.02
2023-04-28T04:14:48.693Z,100138.31
2023-04-28T04:15:54.971Z,100135.48
2023-04-28T04:17:00.787Z,100132.92
2023-04-28T04:18:03.960Z,100135.12
2023-04-28T04:19:09.322Z,100130.00
2023-04-28T04:20:13.833Z,100135.66
2023-04-28T04:21:16.977Z,100136.41
2023-04-28T04:22:21.672Z,100134.03
2023-04-28T04:23:26.327Z,100135.81
2023-04-28T04:24:29.950Z,100135.44
2023-04-28T04:25:33.340Z,100136.20
2023-04-28T04:26:38.348Z,100134.78
2023-04-28T04:27:44.632Z,100134.71
2023-04-28T04:28:47.505Z,100135.56
2023-04-28T04:29:52.053Z,100141.42
2023-04-28T04:30:57.378Z,100137.09
2023-04-28T04:32:02.465Z,100137.09
2023-04-28T04:33:06.279Z,100138.80
2023-04-28T04:34:10.371Z,100127.27
2023-04-28T04:35:14.175Z,100129.64
2023-04-28T04:36:17.478Z,100143.22
2023-04-28T04:37:21.083Z,100137.81
2023-04-28T04:38:29.788Z,100135.73
2023-04-28T04:39:34.365Z,100141.42
2023-04-28T04:40:37.673Z,100135.95
2023-04-28T04:41:42.311Z,100141.87
2023-04-28T04:42:50.294Z,100139.81
2023-04-28T04:43:55.159Z,100145.94
2023-04-28T04:44:58.669Z,100149.75
2023-04-28T04:46:05.369Z,100150.38
2023-04-28T04:47:09.230Z,100147.16
2023-04-28T04:48:14.073Z,100147.68
2023-04-28T04:49:18.949Z,100151.27
2023-04-28T04:50:24.238Z,100154.00
2023-04-28T04:51:29.936Z,100152.48
2023-04-28T04:52:33.222Z,100155.52
2023-04-28T04:53:36.648Z,100151.09
2023-04-28T04:54:40.345Z,100144.95
2023-04-28T04:55:44.586Z,100153.56
2023-04-28T04:56:48.504Z,100151.00
2023-04-28T04:57:55.047Z,100154.59
2023-04-28T04:59:16.924Z,100150.24
2023-04-28T05:00:22.429Z,100154.96
2023-04-28T05:01:26.489Z,100156.57
2023-04-28T05:02:32.011Z,100150.33
2023-04-28T05:03:39.484Z,100164.33
2023-04-28T05:04:43.053Z,100158.18
2023-04-28T05:05:47.624Z,100158.86
2023-04-28T05:06:58.800Z,100164.70
2023-04-28T05:08:02.962Z,100158.36
2023-04-28T05:09:06.452Z,100157.33
2023-04-28T05:10:12.106Z,100158.77
2023-04-28T05:11:16.363Z,100162.91
2023-04-28T05:12:22.699Z,100158.94
2023-04-28T05:13:25.679Z,100165.45
2023-04-28T05:14:30.781Z,100167.16
2023-04-28T05:15:35.824Z,100169.43
2023-04-28T05:16:44.261Z,100166.41
2023-04-28T05:17:49.657Z,100168.30
2023-04-28T05:18:53.655Z,100161.77
2023-04-28T05:19:56.110Z,100166.00
2023-04-28T05:21:02.483Z,100169.28
2023-04-28T05:22:05.105Z,100172.18
2023-04-28T05:23:08.848Z,100172.50
2023-04-28T05:24:12.952Z,100172.69
2023-04-28T05:25:17.076Z,100172.06
2023-04-28T05:26:20.815Z,100174.30
2023-04-28T05:27:23.248Z,100170.42
2023-04-28T05:28:31.777Z,100170.90
2023-04-28T05:29:38.327Z,100174.08
2023-04-28T05:30:44.136Z,100171.98
2023-04-28T05:31:47.760Z,100178.80
2023-04-28T05:32:51.890Z,100184.06
2023-04-28T05:33:57.659Z,100176.91
2023-04-28T05:35:02.544Z,100179.84
2023-04-28T05:36:06.664Z,100183.29
2023-04-28T05:37:10.573Z,100186.59
2023-04-28T05:38:14.816Z,100185.65
2023-04-28T05:39:19.567Z,100183.75
2023-04-28T05:40:23.519Z,100190.42
2023-04-28T05:41:27.926Z,100180.52
2023-04-28T05:42:31.891Z,100183.61
2023-04-28T05:43:35.676Z,100184.66
2023-04-28T05:44:42.978Z,100178.80
2023-04-28T05:45:48.027Z,100187.55
2023-04-28T05:46:51.620Z,100181.70
2023-04-28T05:47:57.238Z,100183.08
2023-04-28T05:49:03.780Z,100184.98
2023-04-28T05:50:10.261Z,100189.39
2023-04-28T05:51:13.491Z,100183.23
2023-04-28T05:52:17.734Z,100190.78
2023-04-28T05:53:21.770Z,100191.48
2023-04-28T05:54:28.606Z,100193.47
2023-04-28T05:55:33.159Z,100200.80
2023-04-28T05:56:36.848Z,100196.62
2023-04-28T05:57:49.666Z,100199.84
2023-04-28T05:58:46.286Z,100198.02
2023-04-28T05:59:49.977Z,100207.33
2023-04-28T06:00:55.608Z,100206.09
2023-04-28T06:01:58.216Z,100204.16
2023-04-28T06:03:01.734Z,100199.57
2023-04-28T06:04:05.968Z,100199.09
2023-04-28T06:05:11.570Z,100207.59
2023-04-28T06:06:16.267Z,100205.65
2023-04-28T06:07:19.739Z,100208.64
2023-04-28T06:08:22.866Z,100209.63
2023-04-28T06:09:26.117Z,100201.71
2023-04-28T06:10:29.653Z,100219.89
2023-04-28T06:11:34.127Z,100224.86
2023-04-28T06:12:37.038Z,100210.69
2023-04-28T06:13:40.973Z,100212.64
2023-04-28T06:14:45.635Z,100209.45
2023-04-28T06:15:49.661Z,100218.57
2023-04-28T06:16:53.367Z,100229.41
2023-04-28T06:17:56.006Z,100224.56
2023-04-28T06:18:59.646Z,100227.48
2023-04-28T06:20:02.840Z,100230.92
2023-04-28T06:21:06.261Z,100230.08
2023-04-28T06:22:09.525Z,100238.16
2023-04-28T06:23:13.132Z,100242.25
2023-04-28T06:24:19.334Z,100237.85
2023-04-28T06:25:23.276Z,100237.13
2023-04-28T06:26:28.587Z,100248.44
2023-04-28T06:27:39.556Z,100244.78
2023-04-28T06:28:39.025Z,100255.71
2023-04-28T06:29:44.304Z,100264.11
2023-04-28T06:30:48.073Z,100262.56
2023-04-28T06:31:52.081Z,100272.12
2023-04-28T06:32:57.271Z,100280.80
2023-04-28T06:34:01.461Z,100283.02
2023-04-28T06:35:05.432Z,100282.84
2023-04-28T06:36:08.462Z,100294.33
2023-04-28T06:37:11.765Z,100296.14
2023-04-28T06:38:15.224Z,100300.37
2023-04-28T06:39:18.775Z,100293.11
2023-04-28T06:40:22.069Z,100306.39
2023-04-28T06:41:26.727Z,100299.02
2023-04-28T06:42:29.392Z,100296.27
2023-04-28T06:43:34.883Z,100304.77
2023-04-28T06:44:51.013Z,100308.61
2023-04-28T06:45:54.276Z,100322.66
2023-04-28T06:47:02.392Z,100326.05
2023-04-28T06:48:06.162Z,100323.72
2023-04-28T06:49:10.482Z,100314.61
2023-04-28T06:50:13.772Z,100318.07
2023-04-28T06:51:16.232Z,100336.59
2023-04-28T06:52:22.762Z,100336.01
2023-04-28T06:53:26.168Z,100335.25
2023-04-28T06:54:29.479Z,100326.11
2023-04-28T06:55:32.029Z,100333.30
2023-04-28T06:56:37.125Z,100328.09
2023-04-28T06:57:40.287Z,100335.27
2023-04-28T06:58:44.630Z,100326.86
2023-04-28T06:59:49.386Z,100326.70
2023-04-28T07:00:53.813Z,100333.72
2023-04-28T07:01:57.804Z,100339.66
2023-04-28T07:03:03.357Z,100338.70
2023-04-28T07:04:06.405Z,100329.25
2023-04-28T07:05:09.008Z,100334.83
2023-04-28T07:06:14.460Z,100340.55
2023-04-28T07:07:17.580Z,100345.70
2023-04-28T07:08:20.887Z,100346.03
2023-04-28T07:09:24.060Z,100338.47
2023-04-28T07:10:29.340Z,100336.42
2023-04-28T07:11:33.066Z,100338.23
2023-04-28T07:12:35.752Z,100343.08
2023-04-28T07:13:41.134Z,100346.54
2023-04-28T07:14:44.624Z,100338.41
2023-04-28T07:15:48.129Z,100341.13
2023-04-28T07:16:53.752Z,100347.88
2023-04-28T07:17:57.666Z,100349.98
2023-04-28T07:19:01.044Z,100345.24
2023-04-28T07:20:07.033Z,100358.13
2023-04-28T07:21:10.680Z,100351.65
2023-04-28T07:22:13.951Z,100355.23
2023-04-28T07:23:17.579Z,100346.86
2023-04-28T07:24:21.495Z,100361.70
2023-04-28T07:25:24.061Z,100354.54
2023-04-28T07:26:28.587Z,100355.17
2023-04-28T07:27:33.262Z,100349.17
2023-04-28T07:28:36.663Z,100348.55
2023-04-28T07:29:39.921Z,100347.92
2023-04-28T07:30:44.404Z,100348.67
2023-04-28T07:31:47.852Z,100353.92
2023-04-28T07:32:51.836Z,100359.56
2023-04-28T07:33:54.502Z,100360.49
2023-04-28T07:34:58.113Z,100361.33
2023-04-28T07:36:01.700Z,100360.13
2023-04-28T07:37:05.854Z,100359.69
2023-04-28T07:38:09.590Z,100350.98
2023-04-28T07:39:13.176Z,100359.23
2023-04-28T07:40:16.599Z,100363.63
2023-04-28T07:41:20.510Z,100360.17
2023-04-28T07:42:23.929Z,100360.52
2023-04-28T07:43:28.337Z,100341.17
2023-04-28T07:44:31.324Z,100344.75
2023-04-28T07:45:34.521Z,100356.75
2023-04-28T07:46:38.346Z,100355.45
2023-04-28T07:47:49.765Z,100349.09
2023-04-28T07:48:54.327Z,100354.20
2023-04-28T07:49:58.248Z,100348.45
2023-04-28T07:51:01.463Z,100357.72
2023-04-28T07:52:04.835Z,100350.66
2023-04-28T07:53:11.169Z,100355.87
2023-04-28T07:54:16.283Z,100356.73
2023-04-28T07:55:23.188Z,100365.81
2023-04-28T07:56:27.102Z,100363.50
2023-04-28T07:57:31.021Z,100371.44
2023-04-28T07:58:34.317Z,100376.32
2023-04-28T07:59:37.027Z,100361.59
2023-04-28T08:00:41.304Z,100372.58
2023-04-28T08:01:44.882Z,100377.56
2023-04-28T08:02:48.471Z,100378.50
2023-04-28T08:03:52.424Z,100375.66
2023-04-28T08:04:55.128Z,100378.48
2023-04-28T08:06:02.876Z,100375.86
2023-04-28T08:07:07.732Z,100383.56
2023-04-28T08:08:11.624Z,100375.50
2023-04-28T08:09:15.260Z,100377.06
2023-04-28T08:10:19.777Z,100375.22
2023-04-28T08:11:24.502Z,100363.15
2023-04-28T08:12:29.866Z,100361.11
2023-04-28T08:13:33.652Z,100367.90
2023-04-28T08:14:37.556Z,100359.37
2023-04-28T08:15:39.957Z,100363.21
2023-04-28T08:16:44.774Z,100366.53
2023-04-28T08:17:49.571Z,100353.04
2023-04-28T08:18:53.159Z,100354.36
2023-04-28T08:19:55.809Z,100354.14
2023-04-28T08:20:59.628Z,100364.12
2023-04-28T08:22:04.717Z,100354.01
2023-04-28T08:23:10.650Z,100357.69
2023-04-28T08:24:14.006Z,100360.52
2023-04-28T08:25:19.516Z,100360.09
2023-04-28T08:26:22.739Z,100355.76
2023-04-28T08:27:26.285Z,100354.44
2023-04-28T08:28:29.108Z,100363.06
2023-04-28T08:29:34.349Z,100367.14
2023-04-28T08:30:38.405Z,100362.02
2023-04-28T08:31:42.111Z,100347.07
2023-04-28T08:32:45.546Z,100339.84
2023-04-28T08:33:51.096Z,100365.22
2023-04-28T08:34:55.235Z,100350.61
2023-04-28T08:35:57.789Z,100366.58
2023-04-28T08:37:00.553Z,100352.55
2023-04-28T08:38:05.108Z,100358.94
2023-04-28T08:39:12.976Z,100350.64
2023-04-28T08:40:16.738Z,100353.47
2023-04-28T08:41:20.844Z,100355.05
2023-04-28T08:42:24.452Z,100369.80
2023-04-28T08:43:28.946Z,100368.02
2023-04-28T08:44:40.394Z,100357.02
2023-04-28T08:45:44.473Z,100369.45
2023-04-28T08:46:50.254Z,100367.13
2023-04-28T08:47:54.539Z,100351.58
2023-04-28T08:49:06.475Z,100359.54
2023-04-28T08:50:10.843Z,100360.76
2023-04-28T08:51:16.277Z,100367.48
2023-04-28T08:52:21.273Z,100366.55
2023-04-28T08:53:28.363Z,100350.26
2023-04-28T08:54:32.925Z,100363.10
2023-04-28T08:55:40.477Z,100356.16
2023-04-28T08:56:46.491Z,100345.48
2023-04-28T09:00:20.613Z,100356.03
2023-04-28T09:01:24.391Z,100350.08
2023-04-28T09:02:28.898Z,100354.77
2023-04-28T09:03:34.895Z,100351.28
2023-04-28T09:04:38.722Z,100351.70
2023-04-28T09:05:42.223Z,100362.23
2023-04-28T09:06:46.290Z,100351.42
2023-04-28T09:07:50.560Z,100360.61
2023-04-28T09:08:53.148Z,100348.86
2023-04-28T09:10:09.784Z,100363.22
2023-04-28T09:11:14.008Z,100369.83
2023-04-28T09:12:18.987Z,100370.80
2023-04-28T09:13:27.107Z,100361.89
2023-04-28T09:14:33.917Z,100367.70
2023-04-28T09:15:39.598Z,100365.84
2023-04-28T09:16:43.088Z,100369.27
2023-04-28T09:17:53.132Z,100364.51
2023-04-28T09:18:58.625Z,100356.95
2023-04-28T09:20:02.105Z,100372.57
2023-04-28T09:21:08.524Z,100373.93
2023-04-28T09:22:25.445Z,100368.33
2023-04-28T09:23:18.274Z,100379.16
2023-04-28T09:24:37.548Z,100371.38
2023-04-28T09:25:39.908Z,100375.33
2023-04-28T09:26:55.766Z,100375.13
2023-04-28T09:27:59.680Z,100365.84
2023-04-28T09:29:13.474Z,100369.91
2023-04-28T09:30:17.768Z,100373.20
2023-04-28T09:31:25.057Z,100380.27
2023-04-28T09:32:29.125Z,100378.72
2023-04-28T09:33:31.731Z,100374.95
2023-04-28T09:34:45.707Z,100372.33
2023-04-28T09:35:49.475Z,100379.47
2023-04-28T09:36:52.894Z,100370.44
2023-04-28T09:37:59.614Z,100368.53
2023-04-28T09:39:01.870Z,100361.49
2023-04-28T09:40:10.875Z,100359.09
2023-04-28T09:41:14.538Z,100357.99
2023-04-28T09:42:37.028Z,100359.09
2023-04-28T09:43:40.424Z,100360.75
2023-04-28T09:44:46.965Z,100350.59
2023-04-28T09:45:50.511Z,100351.57
2023-04-28T09:46:53.245Z,100359.09
2023-04-28T09:48:01.404Z,100364.50
2023-04-28T09:49:05.057Z,100372.55
2023-04-28T09:50:09.766Z,100360.53
2023-04-28T09:51:13.172Z,100353.72
2023-04-28T09:52:18.036Z,100362.55
2023-04-28T09:53:23.257Z,100356.27
2023-04-28T09:54:28.081Z,100354.14
2023-04-28T09:55:34.674Z,100345.21
2023-04-28T09:56:42.342Z,100350.06
2023-04-28T09:57:49.842Z,100348.80
2023-04-28T09:58:54.249Z,100348.09
2023-04-28T09:59:58.514Z,100354.05
2023-04-28T10:01:02.268Z,100355.70
2023-04-28T10:02:22.472Z,100348.78
2023-04-28T10:03:12.355Z,100344.82
2023-04-28T10:04:16.432Z,100357.16
2023-04-28T10:05:20.723Z,100346.28
2023-04-28T10:06:25.799Z,100354.50
2023-04-28T10:07:31.013Z,100354.91
2023-04-28T10:08:33.725Z,100358.44
2023-04-28T10:09:36.726Z,100345.18
2023-04-28T10:10:41.476Z,100354.63
2023-04-28T10:11:44.587Z,100359.29
2023-04-28T10:12:48.310Z,100350.53
2023-04-28T10:13:52.420Z,100339.59
2023-04-28T10:14:55.813Z,100345.28
2023-04-28T10:15:59.549Z,100357.88
2023-04-28T10:17:04.901Z,100351.21
2023-04-28T10:18:16.463Z,100363.22
2023-04-28T10:19:21.028Z,100360.54
2023-04-28T10:20:27.561Z,100348.92
2023-04-28T10:21:32.820Z,100360.97
2023-04-28T10:22:42.004Z,100347.53
2023-04-28T10:23:51.741Z,100357.88
2023-04-28T10:25:16.128Z,100360.25
2023-04-28T10:26:19.640Z,100362.55
2023-04-28T10:27:24.910Z,100362.39
2023-04-28T10:28:30.729Z,100355.63
2023-04-28T10:29:35.170Z,100364.24
2023-04-28T10:30:38.626Z,100353.91
2023-04-28T10:31:43.904Z,100362.66
2023-04-28T10:32:50.124Z,100357.56
2023-04-28T10:33:53.575Z,100351.38
2023-04-28T10:35:18.492Z,100353.92
2023-04-28T10:36:38.328Z,100358.37
2023-04-28T10:38:00.078Z,100364.58
2023-04-28T10:39:10.253Z,100355.34
2023-04-28T10:40:31.969Z,100367.62
2023-04-28T10:41:34.656Z,100359.70
2023-04-28T10:42:49.600Z,100354.12
2023-04-28T10:43:53.435Z,100360.54
2023-04-28T10:44:56.688Z,100365.03
2023-04-28T10:46:01.669Z,100365.27
2023-04-28T10:47:07.036Z,100351.50
2023-04-28T10:48:10.582Z,100363.67
2023-04-28T10:49:12.933Z,100353.62
2023-04-28T10:50:24.039Z,100351.31
2023-04-28T10:51:27.848Z,100351.00
2023-04-28T10:52:34.836Z,100359.63
2023-04-28T10:53:45.241Z,100355.42
2023-04-28T10:55:19.374Z,100349.92
2023-04-28T10:56:20.242Z,100346.29
2023-04-28T10:57:23.580Z,100350.19
2023-04-28T10:58:27.760Z,100349.03
2023-04-28T10:59:31.279Z,100357.66
2023-04-28T11:00:35.607Z,100358.98
2023-04-28T11:01:40.693Z,100362.64
2023-04-28T11:02:45.331Z,100360.25
2023-04-28T11:03:51.231Z,100359.41
2023-04-28T11:05:15.666Z,100357.20
2023-04-28T11:06:21.457Z,100368.69
2023-04-28T11:07:26.585Z,100363.30
2023-04-28T11:08:34.969Z,100363.30
2023-04-28T11:09:40.942Z,100353.28
2023-04-28T11:11:05.870Z,100357.52
2023-04-28T11:12:10.949Z,100356.73
2023-04-28T11:13:32.742Z,100349.20
2023-04-28T11:14:37.380Z,100338.31
2023-04-28T11:15:40.763Z,100343.21
2023-04-28T11:16:46.163Z,100350.42
2023-04-28T11:17:52.249Z,100357.59
2023-04-28T11:18:58.091Z,100355.19
2023-04-28T11:20:07.829Z,100357.66
2023-04-28T11:21:11.817Z,100345.37
2023-04-28T11:22:17.161Z,100343.88
2023-04-28T11:23:19.920Z,100351.34
2023-04-28T11:24:22.590Z,100349.22
2023-04-28T11:25:25.703Z,100344.20
2023-04-28T11:26:30.961Z,100343.61
2023-04-28T11:27:35.991Z,100343.92
2023-04-28T11:28:51.213Z,100341.87
2023-04-28T11:29:53.886Z,100338.82
2023-04-28T11:31:02.760Z,100340.22
2023-04-28T11:32:09.015Z,100329.48
2023-04-28T11:33:15.496Z,100331.69
2023-04-28T11:34:21.700Z,100332.54
2023-04-28T11:35:24.890Z,100335.83
2023-04-28T11:36:38.744Z,100333.97
2023-04-28T11:37:42.259Z,100330.31
2023-04-28T11:38:46.278Z,100333.73
2023-04-28T11:39:53.129Z,100335.56
2023-04-28T11:40:59.158Z,100326.54
2023-04-28T11:42:03.819Z,100325.97
2023-04-28T11:43:07.403Z,100328.91
2023-04-28T11:44:12.158Z,100326.67
2023-04-28T11:45:15.562Z,100319.81
2023-04-28T11:46:21.716Z,100326.47
2023-04-28T11:47:31.233Z,100315.48
2023-04-28T11:48:34.221Z,100320.84
2023-04-28T11:49:44.524Z,100324.37
2023-04-28T11:50:50.993Z,100330.67
2023-04-28T11:51:56.469Z,100333.78
2023-04-28T11:53:00.624Z,100330.06
2023-04-28T11:54:04.175Z,100325.30
2023-04-28T11:55:09.152Z,100322.05
2023-04-28T11:56:15.375Z,100314.97
2023-04-28T11:57:22.019Z,100320.50
2023-04-28T11:58:29.582Z,100321.61
2023-04-28T11:59:34.553Z,100322.80
2023-04-28T12:00:38.993Z,100327.12
2023-04-28T12:01:49.727Z,100312.58
2023-04-28T12:02:52.762Z,100311.72
2023-04-28T12:03:56.494Z,100310.39
2023-04-28T12:05:02.726Z,100315.27
2023-04-28T12:06:06.337Z,100311.03
2023-04-28T12:07:14.352Z,100319.81
2023-04-28T12:08:19.601Z,100312.14
2023-04-28T12:09:24.675Z,100310.11
2023-04-28T12:10:30.171Z,100316.71
2023-04-28T12:11:33.042Z,100314.95
2023-04-28T12:12:48.969Z,100309.33
2023-04-28T12:13:42.457Z,100315.17
2023-04-28T12:14:55.186Z,100310.25
2023-04-28T12:15:59.779Z,100308.06
2023-04-28T12:17:03.320Z,100307.47
2023-04-28T12:18:13.615Z,100303.69
2023-04-28T12:19:17.954Z,100301.22
2023-04-28T12:20:35.238Z,100303.55
2023-04-28T12:21:40.530Z,100300.61
2023-04-28T12:22:45.497Z,100283.41
2023-04-28T12:23:48.998Z,100303.55
2023-04-28T12:25:08.418Z,100303.80
2023-04-28T12:26:10.949Z,100303.61